Airfield :
LOGIN :

Register | Disclaimer

   EN    FR    IT 

 










Legend :    VFR   Marginal VFR   IFR   Intensive IFR   Very Intensive IFR
Visi :
Ceiling :
>= 8 km
>= 3000ft
5 to 8 km
1000 to 3000 ft
1500m to 5 km
500 to 1000 ft
800 to 1500m
200 to 500 ft
< 800m
< 200 ft
Symbols :   Thunderstorms  Fog  Heavy snow  Heavy precipitations  Wind > 20 kt
SIGMETs :     Misc.  Thunderstorms  Icing  Turbulence  Mountain Waves  Volcanic Ashes






- Airport Elevation : 123 ft
- IATA code : BLQ


LIPE - Bologna Guglielmo Marconi

CURRENT METAR :
  • 031820Z 08003KT CAVOK 12/02 Q1014

EXPIRED METARs :
  • 031750Z 08004KT CAVOK 13/02 Q1014
  • 031720Z 09005KT CAVOK 14/02 Q1014
  • 031650Z 09006KT 020V110 CAVOK 15/01 Q1014
  • 031620Z 07005KT 030V120 CAVOK 15/01 Q1014
  • 031550Z 09005KT 050V120 CAVOK 15/01 Q1013

TAF TAF LIPE
Valid from the 03 at 18:00 until the 04 at 18:00 UTC


031700Z 0318/0418 VRB05KT CAVOK



MET'MAP, your aeronautical weather chart ! - Copyright ORBIFLY December 2007 - Disclaimer

ORBIFLY MET'MAP TEAM :

Programming & Development : Alexandra Zaïnal
Concept & original design : Baudouin d'Aumeries
Assistance for programming : Marc-Olivier Méhu
Technical & hardware support : Manuel Goepfert

Contact : metmap@orbifly.com




SOURCES & CREDITS :

   NOAA